sensor_id;sensor_type;location;lat;lon;timestamp;P1;durP1;ratioP1;P2;durP2;ratioP2
20241;SDS011;10279;46.388;8.116;2023-04-01T00:00:59;0.20;;;0.20;;
20241;SDS011;10279;46.388;8.116;2023-04-01T00:03:26;0.50;;;0.30;;
20241;SDS011;10279;46.388;8.116;2023-04-01T00:05:55;0.30;;;0.20;;
20241;SDS011;10279;46.388;8.116;2023-04-01T00:08:23;0.30;;;0.27;;
20241;SDS011;10279;46.388;8.116;2023-04-01T00:10:51;0.10;;;0.10;;
20241;SDS011;10279;46.388;8.116;2023-04-01T00:13:19;0.10;;;0.10;;
20241;SDS011;10279;46.388;8.116;2023-04-01T00:15:47;0.10;;;0.10;;
20241;SDS011;10279;46.388;8.116;2023-04-01T00:18:15;0.30;;;0.23;;
20241;SDS011;10279;46.388;8.116;2023-04-01T00:20:43;1.03;;;0.20;;
20241;SDS011;10279;46.388;8.116;2023-04-01T00:23:11;0.20;;;0.20;;
20241;SDS011;10279;46.388;8.116;2023-04-01T00:25:38;0.10;;;0.10;;
20241;SDS011;10279;46.388;8.116;2023-04-01T00:28:05;0.20;;;0.20;;
20241;SDS011;10279;46.388;8.116;2023-04-01T00:30:33;0.20;;;0.20;;
20241;SDS011;10279;46.388;8.116;2023-04-01T00:33:00;0.80;;;0.20;;
20241;SDS011;10279;46.388;8.116;2023-04-01T00:35:28;0.90;;;0.20;;
20241;SDS011;10279;46.388;8.116;2023-04-01T00:37:56;1.70;;;0.30;;
20241;SDS011;10279;46.388;8.116;2023-04-01T00:40:31;0.30;;;0.30;;
20241;SDS011;10279;46.388;8.116;2023-04-01T00:42:59;0.10;;;0.10;;
20241;SDS011;10279;46.388;8.116;2023-04-01T00:47:58;0.43;;;0.20;;
20241;SDS011;10279;46.388;8.116;2023-04-01T00:50:26;0.93;;;0.30;;
20241;SDS011;10279;46.388;8.116;2023-04-01T00:52:58;0.33;;;0.20;;
20241;SDS011;10279;46.388;8.116;2023-04-01T00:55:27;0.40;;;0.30;;
20241;SDS011;10279;46.388;8.116;2023-04-01T00:57:56;0.93;;;0.40;;
20241;SDS011;10279;46.388;8.116;2023-04-01T01:00:27;0.10;;;0.10;;
20241;SDS011;10279;46.388;8.116;2023-04-01T01:02:54;0.30;;;0.30;;
20241;SDS011;10279;46.388;8.116;2023-04-01T01:05:24;0.20;;;0.10;;
20241;SDS011;10279;46.388;8.116;2023-04-01T01:08:19;0.10;;;0.10;;
20241;SDS011;10279;46.388;8.116;2023-04-01T01:10:43;0.57;;;0.10;;
20241;SDS011;10279;46.388;8.116;2023-04-01T01:14:00;0.63;;;0.27;;
20241;SDS011;10279;46.388;8.116;2023-04-01T01:24:10;1.40;;;0.20;;
20241;SDS011;10279;46.388;8.116;2023-04-01T01:37:32;0.47;;;0.13;;
20241;SDS011;10279;46.388;8.116;2023-04-01T01:40:01;0.20;;;0.20;;
20241;SDS011;10279;46.388;8.116;2023-04-01T01:42:29;0.20;;;0.20;;
20241;SDS011;10279;46.388;8.116;2023-04-01T01:45:00;0.10;;;0.10;;
20241;SDS011;10279;46.388;8.116;2023-04-01T01:47:29;0.27;;;0.27;;
20241;SDS011;10279;46.388;8.116;2023-04-01T01:49:57;0.30;;;0.20;;
20241;SDS011;10279;46.388;8.116;2023-04-01T01:52:26;0.13;;;0.13;;
20241;SDS011;10279;46.388;8.116;2023-04-01T01:54:55;0.20;;;0.17;;
20241;SDS011;10279;46.388;8.116;2023-04-01T01:57:24;0.20;;;0.10;;
20241;SDS011;10279;46.388;8.116;2023-04-01T01:59:54;0.10;;;0.10;;
20241;SDS011;10279;46.388;8.116;2023-04-01T02:02:23;0.10;;;0.10;;
20241;SDS011;10279;46.388;8.116;2023-04-01T02:04:52;0.53;;;0.20;;
20241;SDS011;10279;46.388;8.116;2023-04-01T02:07:21;0.20;;;0.20;;
20241;SDS011;10279;46.388;8.116;2023-04-01T02:09:50;0.10;;;0.10;;
20241;SDS011;10279;46.388;8.116;2023-04-01T02:12:18;0.00;;;0.00;;
20241;SDS011;10279;46.388;8.116;2023-04-01T02:14:53;0.20;;;0.20;;
20241;SDS011;10279;46.388;8.116;2023-04-01T02:17:23;1.53;;;0.27;;
20241;SDS011;10279;46.388;8.116;2023-04-01T02:19:54;0.20;;;0.20;;
20241;SDS011;10279;46.388;8.116;2023-04-01T02:22:23;0.23;;;0.10;;
20241;SDS011;10279;46.388;8.116;2023-04-01T02:24:57;1.13;;;0.30;;
20241;SDS011;10279;46.388;8.116;2023-04-01T02:27:25;0.20;;;0.20;;
20241;SDS011;10279;46.388;8.116;2023-04-01T02:29:53;0.57;;;0.30;;
20241;SDS011;10279;46.388;8.116;2023-04-01T02:32:20;0.57;;;0.30;;
20241;SDS011;10279;46.388;8.116;2023-04-01T02:34:48;0.23;;;0.20;;
20241;SDS011;10279;46.388;8.116;2023-04-01T02:37:15;0.30;;;0.30;;
20241;SDS011;10279;46.388;8.116;2023-04-01T02:39:43;0.40;;;0.40;;
20241;SDS011;10279;46.388;8.116;2023-04-01T02:42:10;0.20;;;0.20;;
20241;SDS011;10279;46.388;8.116;2023-04-01T02:44:37;0.23;;;0.23;;
20241;SDS011;10279;46.388;8.116;2023-04-01T02:47:05;0.30;;;0.30;;
20241;SDS011;10279;46.388;8.116;2023-04-01T02:49:32;0.20;;;0.20;;
20241;SDS011;10279;46.388;8.116;2023-04-01T02:51:59;0.57;;;0.10;;
20241;SDS011;10279;46.388;8.116;2023-04-01T02:54:27;0.10;;;0.10;;
20241;SDS011;10279;46.388;8.116;2023-04-01T02:56:54;0.60;;;0.30;;
20241;SDS011;10279;46.388;8.116;2023-04-01T02:59:22;0.20;;;0.20;;
20241;SDS011;10279;46.388;8.116;2023-04-01T03:01:51;0.30;;;0.20;;
20241;SDS011;10279;46.388;8.116;2023-04-01T03:04:18;0.20;;;0.20;;
20241;SDS011;10279;46.388;8.116;2023-04-01T03:06:46;0.10;;;0.10;;
20241;SDS011;10279;46.388;8.116;2023-04-01T03:09:14;0.10;;;0.10;;
20241;SDS011;10279;46.388;8.116;2023-04-01T03:11:41;0.90;;;0.30;;
20241;SDS011;10279;46.388;8.116;2023-04-01T03:14:09;0.20;;;0.10;;
20241;SDS011;10279;46.388;8.116;2023-04-01T03:16:36;0.20;;;0.20;;
20241;SDS011;10279;46.388;8.116;2023-04-01T03:19:03;0.10;;;0.10;;
20241;SDS011;10279;46.388;8.116;2023-04-01T03:21:31;0.20;;;0.20;;
20241;SDS011;10279;46.388;8.116;2023-04-01T03:23:58;1.00;;;0.90;;
20241;SDS011;10279;46.388;8.116;2023-04-01T03:26:26;0.27;;;0.20;;
20241;SDS011;10279;46.388;8.116;2023-04-01T03:28:54;0.27;;;0.27;;
20241;SDS011;10279;46.388;8.116;2023-04-01T03:31:22;0.20;;;0.17;;
20241;SDS011;10279;46.388;8.116;2023-04-01T03:33:49;1.27;;;0.10;;
20241;SDS011;10279;46.388;8.116;2023-04-01T03:36:17;1.00;;;0.20;;
20241;SDS011;10279;46.388;8.116;2023-04-01T03:38:45;0.20;;;0.20;;
20241;SDS011;10279;46.388;8.116;2023-04-01T03:41:13;0.83;;;0.30;;
20241;SDS011;10279;46.388;8.116;2023-04-01T03:43:41;0.07;;;0.07;;
20241;SDS011;10279;46.388;8.116;2023-04-01T03:46:08;0.13;;;0.13;;
20241;SDS011;10279;46.388;8.116;2023-04-01T03:48:36;0.57;;;0.07;;
20241;SDS011;10279;46.388;8.116;2023-04-01T03:51:07;0.10;;;0.10;;
20241;SDS011;10279;46.388;8.116;2023-04-01T03:53:35;1.53;;;0.20;;
20241;SDS011;10279;46.388;8.116;2023-04-01T03:56:03;1.23;;;0.27;;
20241;SDS011;10279;46.388;8.116;2023-04-01T03:58:31;0.87;;;0.27;;
20241;SDS011;10279;46.388;8.116;2023-04-01T04:00:59;0.30;;;0.30;;
20241;SDS011;10279;46.388;8.116;2023-04-01T04:03:26;2.80;;;0.30;;
20241;SDS011;10279;46.388;8.116;2023-04-01T04:05:54;0.33;;;0.13;;
20241;SDS011;10279;46.388;8.116;2023-04-01T04:08:22;2.47;;;0.30;;
20241;SDS011;10279;46.388;8.116;2023-04-01T04:10:56;0.20;;;0.10;;
20241;SDS011;10279;46.388;8.116;2023-04-01T04:13:23;0.33;;;0.10;;
20241;SDS011;10279;46.388;8.116;2023-04-01T04:15:51;0.50;;;0.40;;
20241;SDS011;10279;46.388;8.116;2023-04-01T04:18:18;0.37;;;0.20;;
20241;SDS011;10279;46.388;8.116;2023-04-01T04:20:46;1.60;;;0.30;;
20241;SDS011;10279;46.388;8.116;2023-04-01T04:23:17;0.53;;;0.30;;
20241;SDS011;10279;46.388;8.116;2023-04-01T04:25:57;0.60;;;0.40;;
20241;SDS011;10279;46.388;8.116;2023-04-01T04:28:25;1.73;;;0.20;;
20241;SDS011;10279;46.388;8.116;2023-04-01T04:30:53;1.40;;;0.20;;
20241;SDS011;10279;46.388;8.116;2023-04-01T04:33:24;3.10;;;0.30;;
20241;SDS011;10279;46.388;8.116;2023-04-01T04:35:51;0.30;;;0.20;;
20241;SDS011;10279;46.388;8.116;2023-04-01T04:38:21;1.43;;;0.40;;
20241;SDS011;10279;46.388;8.116;2023-04-01T04:40:48;1.50;;;0.33;;
20241;SDS011;10279;46.388;8.116;2023-04-01T04:43:17;2.53;;;0.50;;
20241;SDS011;10279;46.388;8.116;2023-04-01T04:45:45;0.27;;;0.20;;
20241;SDS011;10279;46.388;8.116;2023-04-01T04:48:13;0.37;;;0.30;;
20241;SDS011;10279;46.388;8.116;2023-04-01T04:50:45;0.10;;;0.10;;
20241;SDS011;10279;46.388;8.116;2023-04-01T04:53:14;1.87;;;0.27;;
20241;SDS011;10279;46.388;8.116;2023-04-01T04:55:42;0.47;;;0.10;;
20241;SDS011;10279;46.388;8.116;2023-04-01T04:58:10;0.20;;;0.20;;
20241;SDS011;10279;46.388;8.116;2023-04-01T05:00:37;0.40;;;0.20;;
20241;SDS011;10279;46.388;8.116;2023-04-01T05:03:05;0.20;;;0.20;;
20241;SDS011;10279;46.388;8.116;2023-04-01T05:05:32;0.53;;;0.20;;
20241;SDS011;10279;46.388;8.116;2023-04-01T05:08:00;0.10;;;0.10;;
20241;SDS011;10279;46.388;8.116;2023-04-01T05:10:28;1.17;;;0.73;;
20241;SDS011;10279;46.388;8.116;2023-04-01T05:12:55;0.10;;;0.10;;
20241;SDS011;10279;46.388;8.116;2023-04-01T05:15:23;0.30;;;0.20;;
20241;SDS011;10279;46.388;8.116;2023-04-01T05:17:51;0.10;;;0.10;;
20241;SDS011;10279;46.388;8.116;2023-04-01T05:20:18;0.93;;;0.20;;
20241;SDS011;10279;46.388;8.116;2023-04-01T05:22:46;0.40;;;0.20;;
20241;SDS011;10279;46.388;8.116;2023-04-01T05:25:13;0.53;;;0.10;;
20241;SDS011;10279;46.388;8.116;2023-04-01T05:27:41;0.10;;;0.10;;
20241;SDS011;10279;46.388;8.116;2023-04-01T05:30:08;0.10;;;0.10;;
20241;SDS011;10279;46.388;8.116;2023-04-01T05:32:36;0.30;;;0.10;;
20241;SDS011;10279;46.388;8.116;2023-04-01T05:35:04;0.17;;;0.17;;
20241;SDS011;10279;46.388;8.116;2023-04-01T05:37:33;0.10;;;0.10;;
20241;SDS011;10279;46.388;8.116;2023-04-01T05:40:01;0.17;;;0.10;;
20241;SDS011;10279;46.388;8.116;2023-04-01T05:42:28;0.13;;;0.13;;
20241;SDS011;10279;46.388;8.116;2023-04-01T05:44:56;0.20;;;0.20;;
20241;SDS011;10279;46.388;8.116;2023-04-01T05:47:23;0.20;;;0.20;;
20241;SDS011;10279;46.388;8.116;2023-04-01T05:49:51;0.10;;;0.10;;
20241;SDS011;10279;46.388;8.116;2023-04-01T05:52:18;0.27;;;0.27;;
20241;SDS011;10279;46.388;8.116;2023-04-01T05:54:45;0.40;;;0.17;;
20241;SDS011;10279;46.388;8.116;2023-04-01T05:57:13;0.20;;;0.20;;
20241;SDS011;10279;46.388;8.116;2023-04-01T05:59:40;0.10;;;0.10;;
20241;SDS011;10279;46.388;8.116;2023-04-01T06:02:08;0.10;;;0.10;;
20241;SDS011;10279;46.388;8.116;2023-04-01T06:04:37;0.30;;;0.30;;
20241;SDS011;10279;46.388;8.116;2023-04-01T06:07:12;0.30;;;0.30;;
20241;SDS011;10279;46.388;8.116;2023-04-01T06:09:40;0.10;;;0.10;;
20241;SDS011;10279;46.388;8.116;2023-04-01T06:12:21;2.00;;;0.20;;
20241;SDS011;10279;46.388;8.116;2023-04-01T06:23:01;0.60;;;0.13;;
20241;SDS011;10279;46.388;8.116;2023-04-01T06:25:36;0.20;;;0.20;;
20241;SDS011;10279;46.388;8.116;2023-04-01T06:30:37;0.20;;;0.17;;
20241;SDS011;10279;46.388;8.116;2023-04-01T06:33:13;1.80;;;0.67;;
20241;SDS011;10279;46.388;8.116;2023-04-01T06:44:04;0.20;;;0.17;;
20241;SDS011;10279;46.388;8.116;2023-04-01T06:54:24;1.50;;;0.10;;
20241;SDS011;10279;46.388;8.116;2023-04-01T06:56:54;0.60;;;0.20;;
20241;SDS011;10279;46.388;8.116;2023-04-01T06:59:28;0.00;;;0.00;;
20241;SDS011;10279;46.388;8.116;2023-04-01T07:04:48;0.17;;;0.17;;
20241;SDS011;10279;46.388;8.116;2023-04-01T07:07:39;0.07;;;0.07;;
20241;SDS011;10279;46.388;8.116;2023-04-01T07:10:09;0.10;;;0.10;;
20241;SDS011;10279;46.388;8.116;2023-04-01T07:12:51;0.10;;;0.10;;
20241;SDS011;10279;46.388;8.116;2023-04-01T07:15:32;0.13;;;0.13;;
20241;SDS011;10279;46.388;8.116;2023-04-01T07:18:37;0.10;;;0.10;;
20241;SDS011;10279;46.388;8.116;2023-04-01T07:20:54;0.20;;;0.20;;
20241;SDS011;10279;46.388;8.116;2023-04-01T07:23:23;1.00;;;0.10;;
20241;SDS011;10279;46.388;8.116;2023-04-01T07:26:01;0.10;;;0.10;;
20241;SDS011;10279;46.388;8.116;2023-04-01T07:28:31;0.10;;;0.10;;
20241;SDS011;10279;46.388;8.116;2023-04-01T07:34:00;1.00;;;0.27;;
20241;SDS011;10279;46.388;8.116;2023-04-01T07:39:00;0.10;;;0.10;;
20241;SDS011;10279;46.388;8.116;2023-04-01T07:41:51;0.10;;;0.10;;
20241;SDS011;10279;46.388;8.116;2023-04-01T07:46:53;0.20;;;0.20;;
20241;SDS011;10279;46.388;8.116;2023-04-01T07:49:25;0.10;;;0.10;;
20241;SDS011;10279;46.388;8.116;2023-04-01T08:05:29;0.13;;;0.10;;
20241;SDS011;10279;46.388;8.116;2023-04-01T08:08:11;0.10;;;0.10;;
20241;SDS011;10279;46.388;8.116;2023-04-01T08:10:49;2.33;;;0.10;;
20241;SDS011;10279;46.388;8.116;2023-04-01T08:21:18;0.00;;;0.00;;
20241;SDS011;10279;46.388;8.116;2023-04-01T08:23:48;0.10;;;0.10;;
20241;SDS011;10279;46.388;8.116;2023-04-01T08:28:44;0.10;;;0.10;;
20241;SDS011;10279;46.388;8.116;2023-04-01T08:31:23;0.10;;;0.10;;
20241;SDS011;10279;46.388;8.116;2023-04-01T08:33:53;1.07;;;0.20;;
20241;SDS011;10279;46.388;8.116;2023-04-01T08:36:34;0.10;;;0.10;;
20241;SDS011;10279;46.388;8.116;2023-04-01T08:39:04;0.40;;;0.20;;
20241;SDS011;10279;46.388;8.116;2023-04-01T08:53:00;0.10;;;0.10;;
20241;SDS011;10279;46.388;8.116;2023-04-01T09:00:54;0.40;;;0.30;;
20241;SDS011;10279;46.388;8.116;2023-04-01T09:16:23;0.10;;;0.10;;
20241;SDS011;10279;46.388;8.116;2023-04-01T09:34:54;0.10;;;0.10;;
20241;SDS011;10279;46.388;8.116;2023-04-01T09:42:42;0.10;;;0.10;;
20241;SDS011;10279;46.388;8.116;2023-04-01T09:48:30;0.10;;;0.10;;
20241;SDS011;10279;46.388;8.116;2023-04-01T09:51:05;0.10;;;0.10;;
20241;SDS011;10279;46.388;8.116;2023-04-01T10:20:12;0.10;;;0.10;;
20241;SDS011;10279;46.388;8.116;2023-04-01T10:38:40;0.20;;;0.20;;
20241;SDS011;10279;46.388;8.116;2023-04-01T10:54:40;0.30;;;0.30;;
20241;SDS011;10279;46.388;8.116;2023-04-01T10:57:21;0.40;;;0.30;;
20241;SDS011;10279;46.388;8.116;2023-04-01T11:03:01;0.30;;;0.30;;
20241;SDS011;10279;46.388;8.116;2023-04-01T11:42:24;0.20;;;0.17;;
20241;SDS011;10279;46.388;8.116;2023-04-01T11:45:16;0.43;;;0.13;;
20241;SDS011;10279;46.388;8.116;2023-04-01T11:50:38;0.10;;;0.10;;
20241;SDS011;10279;46.388;8.116;2023-04-01T11:58:36;0.50;;;0.30;;
20241;SDS011;10279;46.388;8.116;2023-04-01T12:09:04;0.10;;;0.10;;
20241;SDS011;10279;46.388;8.116;2023-04-01T12:22:12;0.10;;;0.10;;
20241;SDS011;10279;46.388;8.116;2023-04-01T12:29:45;0.20;;;0.20;;
20241;SDS011;10279;46.388;8.116;2023-04-01T12:56:08;0.10;;;0.10;;
20241;SDS011;10279;46.388;8.116;2023-04-01T12:58:40;1.03;;;0.20;;
20241;SDS011;10279;46.388;8.116;2023-04-01T13:01:19;0.63;;;0.10;;
20241;SDS011;10279;46.388;8.116;2023-04-01T13:09:11;0.10;;;0.10;;
20241;SDS011;10279;46.388;8.116;2023-04-01T13:11:59;0.10;;;0.10;;
20241;SDS011;10279;46.388;8.116;2023-04-01T13:14:33;0.00;;;0.00;;
20241;SDS011;10279;46.388;8.116;2023-04-01T13:17:09;0.30;;;0.10;;
20241;SDS011;10279;46.388;8.116;2023-04-01T13:22:35;0.10;;;0.10;;
20241;SDS011;10279;46.388;8.116;2023-04-01T13:27:56;0.57;;;0.20;;
20241;SDS011;10279;46.388;8.116;2023-04-01T13:30:26;0.17;;;0.17;;
20241;SDS011;10279;46.388;8.116;2023-04-01T13:40:51;0.10;;;0.10;;
20241;SDS011;10279;46.388;8.116;2023-04-01T13:43:35;0.10;;;0.10;;
20241;SDS011;10279;46.388;8.116;2023-04-01T13:46:09;0.13;;;0.13;;
20241;SDS011;10279;46.388;8.116;2023-04-01T13:51:52;0.20;;;0.10;;
20241;SDS011;10279;46.388;8.116;2023-04-01T14:07:31;0.20;;;0.10;;
20241;SDS011;10279;46.388;8.116;2023-04-01T14:10:08;0.10;;;0.10;;
20241;SDS011;10279;46.388;8.116;2023-04-01T14:15:33;0.10;;;0.10;;
20241;SDS011;10279;46.388;8.116;2023-04-01T14:18:17;0.40;;;0.20;;
20241;SDS011;10279;46.388;8.116;2023-04-01T14:44:11;0.20;;;0.20;;
20241;SDS011;10279;46.388;8.116;2023-04-01T14:49:21;0.20;;;0.20;;
20241;SDS011;10279;46.388;8.116;2023-04-01T14:51:50;0.17;;;0.17;;
20241;SDS011;10279;46.388;8.116;2023-04-01T14:54:20;0.20;;;0.10;;
20241;SDS011;10279;46.388;8.116;2023-04-01T14:57:13;0.20;;;0.20;;
20241;SDS011;10279;46.388;8.116;2023-04-01T14:59:47;0.37;;;0.20;;
20241;SDS011;10279;46.388;8.116;2023-04-01T15:12:29;0.57;;;0.20;;
20241;SDS011;10279;46.388;8.116;2023-04-01T15:28:39;0.10;;;0.10;;
20241;SDS011;10279;46.388;8.116;2023-04-01T15:42:28;0.20;;;0.20;;
20241;SDS011;10279;46.388;8.116;2023-04-01T15:47:42;0.17;;;0.17;;
20241;SDS011;10279;46.388;8.116;2023-04-01T15:56:07;0.17;;;0.17;;
20241;SDS011;10279;46.388;8.116;2023-04-01T15:58:44;0.20;;;0.20;;
20241;SDS011;10279;46.388;8.116;2023-04-01T16:14:39;0.10;;;0.10;;
20241;SDS011;10279;46.388;8.116;2023-04-01T16:22:38;0.10;;;0.10;;
20241;SDS011;10279;46.388;8.116;2023-04-01T16:28:38;0.10;;;0.10;;
20241;SDS011;10279;46.388;8.116;2023-04-01T16:36:08;0.60;;;0.20;;
20241;SDS011;10279;46.388;8.116;2023-04-01T16:38:50;0.13;;;0.10;;
20241;SDS011;10279;46.388;8.116;2023-04-01T16:42:15;0.37;;;0.20;;
20241;SDS011;10279;46.388;8.116;2023-04-01T16:46:49;0.10;;;0.10;;
20241;SDS011;10279;46.388;8.116;2023-04-01T16:59:56;0.77;;;0.30;;
20241;SDS011;10279;46.388;8.116;2023-04-01T17:02:31;0.17;;;0.17;;
20241;SDS011;10279;46.388;8.116;2023-04-01T17:05:18;1.23;;;0.20;;
20241;SDS011;10279;46.388;8.116;2023-04-01T17:07:49;0.20;;;0.20;;
20241;SDS011;10279;46.388;8.116;2023-04-01T17:10:29;0.10;;;0.10;;
20241;SDS011;10279;46.388;8.116;2023-04-01T17:15:37;0.63;;;0.30;;
20241;SDS011;10279;46.388;8.116;2023-04-01T17:18:09;0.10;;;0.10;;
20241;SDS011;10279;46.388;8.116;2023-04-01T17:20:43;0.33;;;0.27;;
20241;SDS011;10279;46.388;8.116;2023-04-01T17:23:21;0.37;;;0.20;;
20241;SDS011;10279;46.388;8.116;2023-04-01T17:26:00;0.10;;;0.10;;
20241;SDS011;10279;46.388;8.116;2023-04-01T17:56:53;0.30;;;0.30;;
20241;SDS011;10279;46.388;8.116;2023-04-01T17:59:37;1.03;;;0.30;;
20241;SDS011;10279;46.388;8.116;2023-04-01T18:27:22;0.73;;;0.30;;
20241;SDS011;10279;46.388;8.116;2023-04-01T18:29:54;1.53;;;0.50;;
20241;SDS011;10279;46.388;8.116;2023-04-01T18:32:28;1.27;;;0.70;;
20241;SDS011;10279;46.388;8.116;2023-04-01T18:45:41;1.70;;;0.40;;
20241;SDS011;10279;46.388;8.116;2023-04-01T18:50:54;1.20;;;0.40;;
20241;SDS011;10279;46.388;8.116;2023-04-01T18:53:31;0.27;;;0.20;;
20241;SDS011;10279;46.388;8.116;2023-04-01T18:56:03;1.67;;;1.50;;
20241;SDS011;10279;46.388;8.116;2023-04-01T19:03:32;2.30;;;0.60;;
20241;SDS011;10279;46.388;8.116;2023-04-01T19:06:07;0.93;;;0.60;;
20241;SDS011;10279;46.388;8.116;2023-04-01T19:08:38;0.50;;;0.47;;
20241;SDS011;10279;46.388;8.116;2023-04-01T19:11:09;0.77;;;0.30;;
20241;SDS011;10279;46.388;8.116;2023-04-01T19:13:40;0.43;;;0.43;;
20241;SDS011;10279;46.388;8.116;2023-04-01T19:19:05;0.70;;;0.70;;
20241;SDS011;10279;46.388;8.116;2023-04-01T19:21:33;1.50;;;0.50;;
20241;SDS011;10279;46.388;8.116;2023-04-01T19:31:54;0.73;;;0.50;;
20241;SDS011;10279;46.388;8.116;2023-04-01T19:34:37;0.70;;;0.70;;
20241;SDS011;10279;46.388;8.116;2023-04-01T19:48:05;0.23;;;0.23;;
20241;SDS011;10279;46.388;8.116;2023-04-01T19:52:46;0.30;;;0.27;;
20241;SDS011;10279;46.388;8.116;2023-04-01T19:55:26;2.87;;;0.50;;
20241;SDS011;10279;46.388;8.116;2023-04-01T20:05:47;0.20;;;0.20;;
20241;SDS011;10279;46.388;8.116;2023-04-01T20:13:21;0.30;;;0.20;;
20241;SDS011;10279;46.388;8.116;2023-04-01T20:16:01;0.63;;;0.40;;
20241;SDS011;10279;46.388;8.116;2023-04-01T20:21:02;0.60;;;0.37;;
20241;SDS011;10279;46.388;8.116;2023-04-01T20:23:35;0.30;;;0.30;;
20241;SDS011;10279;46.388;8.116;2023-04-01T20:26:13;0.73;;;0.60;;
20241;SDS011;10279;46.388;8.116;2023-04-01T20:28:47;1.73;;;0.80;;
20241;SDS011;10279;46.388;8.116;2023-04-01T20:41:45;0.97;;;0.50;;
20241;SDS011;10279;46.388;8.116;2023-04-01T20:47:17;0.50;;;0.50;;
20241;SDS011;10279;46.388;8.116;2023-04-01T20:52:18;0.60;;;0.60;;
20241;SDS011;10279;46.388;8.116;2023-04-01T21:00:19;0.30;;;0.30;;
20241;SDS011;10279;46.388;8.116;2023-04-01T21:13:35;1.67;;;0.90;;
20241;SDS011;10279;46.388;8.116;2023-04-01T21:18:54;1.10;;;1.00;;
20241;SDS011;10279;46.388;8.116;2023-04-01T21:34:43;0.50;;;0.50;;
20241;SDS011;10279;46.388;8.116;2023-04-01T21:37:36;0.77;;;0.77;;
20241;SDS011;10279;46.388;8.116;2023-04-01T21:45:34;1.83;;;1.17;;
20241;SDS011;10279;46.388;8.116;2023-04-01T21:48:10;1.20;;;0.90;;
20241;SDS011;10279;46.388;8.116;2023-04-01T22:06:33;2.03;;;0.90;;
20241;SDS011;10279;46.388;8.116;2023-04-01T22:14:52;1.10;;;1.00;;
20241;SDS011;10279;46.388;8.116;2023-04-01T22:20:29;1.07;;;0.90;;
20241;SDS011;10279;46.388;8.116;2023-04-01T22:26:00;1.17;;;0.67;;
20241;SDS011;10279;46.388;8.116;2023-04-01T22:28:35;1.17;;;0.90;;
20241;SDS011;10279;46.388;8.116;2023-04-01T22:31:05;0.80;;;0.80;;
20241;SDS011;10279;46.388;8.116;2023-04-01T22:34:09;1.67;;;0.60;;
20241;SDS011;10279;46.388;8.116;2023-04-01T22:41:45;1.13;;;0.60;;
20241;SDS011;10279;46.388;8.116;2023-04-01T22:44:20;1.27;;;1.17;;
20241;SDS011;10279;46.388;8.116;2023-04-01T22:54:27;0.40;;;0.40;;
20241;SDS011;10279;46.388;8.116;2023-04-01T22:57:08;0.60;;;0.50;;
20241;SDS011;10279;46.388;8.116;2023-04-01T23:04:39;1.30;;;0.63;;
20241;SDS011;10279;46.388;8.116;2023-04-01T23:07:30;0.53;;;0.40;;
20241;SDS011;10279;46.388;8.116;2023-04-01T23:09:59;1.00;;;0.77;;
20241;SDS011;10279;46.388;8.116;2023-04-01T23:12:29;0.40;;;0.40;;
20241;SDS011;10279;46.388;8.116;2023-04-01T23:14:58;1.27;;;0.50;;
20241;SDS011;10279;46.388;8.116;2023-04-01T23:25:43;0.87;;;0.50;;
20241;SDS011;10279;46.388;8.116;2023-04-01T23:36:20;1.47;;;0.70;;
20241;SDS011;10279;46.388;8.116;2023-04-01T23:38:40;1.03;;;0.80;;
20241;SDS011;10279;46.388;8.116;2023-04-01T23:41:18;0.60;;;0.60;;
20241;SDS011;10279;46.388;8.116;2023-04-01T23:43:48;0.83;;;0.70;;
20241;SDS011;10279;46.388;8.116;2023-04-01T23:46:18;1.40;;;0.73;;
20241;SDS011;10279;46.388;8.116;2023-04-01T23:48:46;1.00;;;0.70;;
20241;SDS011;10279;46.388;8.116;2023-04-01T23:51:17;1.20;;;0.70;;
20241;SDS011;10279;46.388;8.116;2023-04-01T23:53:45;1.97;;;0.80;;
20241;SDS011;10279;46.388;8.116;2023-04-01T23:56:17;1.27;;;0.90;;
20241;SDS011;10279;46.388;8.116;2023-04-01T23:58:48;0.90;;;0.70;;
